Dades meteomassalio
 
Diari Summary for Noviembre 15, 2018 Units:  Metric    English   Both
« Previous Day
Next Day »
Diari Semanal Mensual Anual Personalitzat
  Actual: Maxima: Minima: Mijana:
Temperatura: -10.7 °C -17.8 °C -12.8 °C -11.3 °C
Rosada: -11.3 °C -17.8 °C -13.5 °C -11.9 °C
Humitat: 93 % Humidity % 88 % 92 %
Velocitat del vent: 0 km/h 0 km/h 0 km/h 0.3 km/h
Racha vent: 0 km/h 0 km/h - -
Vent:Calm - - SW
Pressio: 34598.1 hPa 0 hPa 34588 hPa -
Pluja: 548.64 mm      
Historical Graphs
 
 
Tabular Data for Noviembre 15, 2018
Time Temperature Dew Point Pressure Wind Wind Speed Wind Gust Humidity Rainfall Rate (Hourly) solar Conditions
-17.8 °C -17.8 °C 0 hPa Calm     Humidity % 0 mm SolarRadiationWatts/m^2 W/m2 Conditions
00:04 -10.4 °C -11.3 °C 34659.1 hPa Calm     89 % 0 mm 0.00 W/m2 RA
00:09 -10.4 °C -11.4 °C 34655.7 hPa Calm     88 % 0 mm 0.00 W/m2 CLR
00:14 -10.4 °C -11.4 °C 34655.7 hPa Calm     88 % 0 mm 0.00 W/m2 CLR
00:19 -10.4 °C -11.3 °C 34659.1 hPa Calm     89 % 0 mm 0.00 W/m2 CLR
00:24 -10.4 °C -11.4 °C 34655.7 hPa Calm     88 % 0 mm 0.00 W/m2 CLR
00:29 -10.4 °C -11.3 °C 34652.3 hPa Calm     89 % 0 mm 0.00 W/m2 CLR
00:34 -10.4 °C -11.3 °C 34652.3 hPa Calm     89 % 0 mm 0.00 W/m2 CLR
00:39 -10.7 °C -11.7 °C 34652.3 hPa Calm     89 % 0 mm 0.00 W/m2 CLR
00:44 -10.7 °C -11.7 °C 34652.3 hPa Calm     89 % 0 mm 0.00 W/m2 CLR
00:49 -10.7 °C -11.7 °C 34652.3 hPa Calm     89 % 0 mm 0.00 W/m2 CLR
00:54 -10.7 °C -11.7 °C 34652.3 hPa Calm     89 % 0 mm 0.00 W/m2 CLR
00:59 -10.7 °C -11.7 °C 34648.9 hPa Calm     89 % 0 mm 0.00 W/m2 CLR
01:04 -10.4 °C -11.3 °C 34645.6 hPa Calm     89 % 0 mm 0.00 W/m2 CLR
01:09 -10.4 °C -11.3 °C 34645.6 hPa Calm     89 % 0 mm 0.00 W/m2 CLR
01:14 -10.4 °C -11.3 °C 34642.2 hPa Calm     89 % 0 mm 0.00 W/m2 CLR
01:19 -10.7 °C -11.6 °C 34642.2 hPa Calm     90 % 0 mm 0.00 W/m2 CLR
01:24 -10.7 °C -11.6 °C 34638.8 hPa Calm     90 % 0 mm 0.00 W/m2 CLR
01:29 -10.7 °C -11.6 °C 34638.8 hPa Calm     90 % 0 mm 0.00 W/m2 CLR
01:34 -11 °C -11.9 °C 34635.4 hPa Calm     90 % 0 mm 0.00 W/m2 CLR
01:39 -11 °C -11.9 °C 34635.4 hPa Calm     90 % 0 mm 0.00 W/m2 CLR
01:44 -11 °C -11.9 °C 34635.4 hPa Calm     90 % 0 mm 0.00 W/m2 CLR
01:49 -11.3 °C -12.2 °C 34635.4 hPa Calm     90 % 0 mm 0.00 W/m2 CLR
01:54 -11.3 °C -12.2 °C 34632 hPa Calm     90 % 0 mm 0.00 W/m2 CLR
01:59 -11.6 °C -12.4 °C 34628.6 hPa Calm     90 % 0 mm 0.00 W/m2 CLR
02:04 -11.6 °C -12.4 °C 34628.6 hPa Calm     91 % 0 mm 0.00 W/m2 CLR
02:09 -11.6 °C -12.4 °C 34625.2 hPa Calm     90 % 0 mm 0.00 W/m2 CLR
02:14 -11.9 °C -12.7 °C 34625.2 hPa Calm     91 % 0 mm 0.00 W/m2 CLR
02:19 -11.9 °C -12.7 °C 34628.6 hPa Calm     91 % 0 mm 0.00 W/m2 CLR
02:24 -11.9 °C -12.7 °C 34628.6 hPa Calm     91 % 0 mm 0.00 W/m2 CLR
02:29 -11.9 °C -12.7 °C 34628.6 hPa Calm     91 % 0 mm 0.00 W/m2 CLR
02:34 -11.6 °C -12.4 °C 34628.6 hPa Calm     91 % 0 mm 0.00 W/m2 CLR
02:39 -11.6 °C -12.4 °C 34628.6 hPa Calm     91 % 0 mm 0.00 W/m2 CLR
02:44 -11.6 °C -12.4 °C 34625.2 hPa Calm     91 % 0 mm 0.00 W/m2 CLR
02:49 -11.6 °C -12.3 °C 34621.9 hPa Calm     92 % 0 mm 0.00 W/m2 CLR
02:54 -11.6 °C -12.3 °C 34618.5 hPa Calm     92 % 0 mm 0.00 W/m2 CLR
02:59 -11.9 °C -12.7 °C 34615.1 hPa Calm     91 % 0 mm 0.00 W/m2 CLR
03:04 -11.9 °C -12.6 °C 34615.1 hPa Calm     92 % 0 mm 0.00 W/m2 CLR
03:09 -11.9 °C -12.7 °C 34615.1 hPa Calm     91 % 0 mm 0.00 W/m2 CLR
03:14 -11.9 °C -12.7 °C 34615.1 hPa Calm     91 % 0 mm 0.00 W/m2 CLR
03:19 -11.9 °C -12.6 °C 34615.1 hPa Calm     92 % 0 mm 0.00 W/m2 CLR
03:24 -12.2 °C -12.9 °C 34615.1 hPa Calm     92 % 0 mm 0.00 W/m2 CLR
03:29 -12.2 °C -13 °C 34615.1 hPa Calm     91 % 0 mm 0.00 W/m2 CLR
03:34 -12.2 °C -12.9 °C 34608.3 hPa Calm     92 % 0 mm 0.00 W/m2 CLR
03:39 -12.6 °C -13.2 °C 34611.7 hPa Calm     92 % 0 mm 0.00 W/m2 CLR
03:44 -12.6 °C -13.3 °C 34608.3 hPa Calm     91 % 0 mm 0.00 W/m2 CLR
03:49 -12.6 °C -13.2 °C 34608.3 hPa Calm     92 % 0 mm 0.00 W/m2 CLR
03:54 -12.6 °C -13.2 °C 34604.9 hPa Calm     92 % 0 mm 0.00 W/m2 CLR
03:59 -12.6 °C -13.2 °C 34601.5 hPa Calm     92 % 0 mm 0.00 W/m2 CLR
04:04 -12.8 °C -13.5 °C 34598.1 hPa Calm     92 % 0 mm 0.00 W/m2 CLR
04:09 -12.6 °C -13.2 °C 34598.1 hPa Calm     92 % 0 mm 0.00 W/m2 CLR
04:14 -12.6 °C -13.2 °C 34594.8 hPa Calm     92 % 0 mm 0.00 W/m2 CLR
04:19 -12.6 °C -13.2 °C 34594.8 hPa Calm     92 % 0 mm 0.00 W/m2 CLR
04:24 -12.6 °C -13.2 °C 34594.8 hPa Calm     92 % 0 mm 0.00 W/m2 CLR
04:29 -12.6 °C -13.2 °C 34594.8 hPa Calm     92 % 0 mm 0.00 W/m2 CLR
04:34 -12.6 °C -13.2 °C 34591.4 hPa Calm     92 % 0 mm 0.00 W/m2 CLR
04:39 -12.6 °C -13.2 °C 34591.4 hPa Calm     92 % 0 mm 0.00 W/m2 CLR
04:44 -12.6 °C -13.2 °C 34591.4 hPa Calm     92 % 0 mm 0.00 W/m2 CLR
04:49 -12.6 °C -13.2 °C 34594.8 hPa Calm     92 % 0 mm 0.00 W/m2 CLR
04:54 -12.8 °C -13.5 °C 34591.4 hPa Calm     92 % 0 mm 0.00 W/m2 CLR
04:59 -12.8 °C -13.5 °C 34591.4 hPa Calm     92 % 0 mm 0.00 W/m2 CLR
05:04 -12.6 °C -13.2 °C 34591.4 hPa Calm     92 % 0 mm 0.00 W/m2 CLR
05:09 -12.6 °C -13.2 °C 34591.4 hPa Calm     92 % 0 mm 0.00 W/m2 CLR
05:14 -12.2 °C -12.8 °C 34588 hPa Calm     93 % 0 mm 0.00 W/m2 CLR
05:19 -12.2 °C -12.8 °C 34588 hPa Calm     93 % 0 mm 0.00 W/m2 CLR
05:24 -12.2 °C -12.8 °C 34591.4 hPa Calm     93 % 0 mm 0.00 W/m2 CLR
05:29 -12.2 °C -12.8 °C 34591.4 hPa Calm     93 % 0 mm 0.00 W/m2 CLR
05:34 -12.2 °C -12.8 °C 34594.8 hPa Calm     93 % 0 mm 0.00 W/m2 CLR
05:39 -12.2 °C -12.8 °C 34598.1 hPa Calm     93 % 0 mm 0.00 W/m2 CLR
05:44 -12.2 °C -12.8 °C 34594.8 hPa Calm     93 % 0 mm 0.00 W/m2 CLR
05:49 -12.2 °C -12.8 °C 34598.1 hPa Calm     93 % 0 mm 0.00 W/m2 CLR
05:54 -12.2 °C -12.8 °C 34598.1 hPa Calm     93 % 0 mm 0.00 W/m2 CLR
05:59 -12.2 °C -12.8 °C 34598.1 hPa Calm     93 % 0 mm 0.00 W/m2 CLR
06:04 -11.9 °C -12.6 °C 34598.1 hPa Calm     93 % 0 mm 0.00 W/m2 CLR
06:09 -11.9 °C -12.6 °C 34598.1 hPa Calm     93 % 0 mm 0.00 W/m2 CLR
06:14 -11.9 °C -12.6 °C 34598.1 hPa Calm     93 % 0 mm 0.00 W/m2 CLR
06:19 -11.9 °C -12.6 °C 34594.8 hPa Calm     93 % 0 mm 0.00 W/m2 CLR
06:24 -11.9 °C -12.6 °C 34591.4 hPa Calm     93 % 0 mm 0.00 W/m2 CLR
06:29 -11.9 °C -12.6 °C 34594.8 hPa Calm     93 % 0 mm 0.00 W/m2 CLR
06:34 -11.9 °C -12.6 °C 34598.1 hPa Calm     93 % 0 mm 0.00 W/m2 CLR
06:39 -11.9 °C -12.6 °C 34594.8 hPa Calm     93 % 12.7 mm 0.00 W/m2 RA
06:44 -11.9 °C -12.6 °C 34591.4 hPa Calm     93 % 20.32 mm 0.00 W/m2 RA
06:49 -11.9 °C -12.6 °C 34594.8 hPa Calm     93 % 33.02 mm 0.00 W/m2 RA
06:54 -11.9 °C -12.6 °C 34591.4 hPa Calm     93 % 38.1 mm 0.00 W/m2 RA
06:59 -11.9 °C -12.6 °C 34591.4 hPa Calm     93 % 45.72 mm 0.00 W/m2 RA
07:04 -11.9 °C -12.6 °C 34594.8 hPa Calm     93 % 45.72 mm 0.00 W/m2
07:09 -11.9 °C -12.6 °C 34594.8 hPa Calm     93 % 45.72 mm 0.00 W/m2 CLR
07:14 -11.9 °C -12.6 °C 34594.8 hPa Calm     93 % 45.72 mm 0.00 W/m2 CLR
07:19 -11.9 °C -12.6 °C 34591.4 hPa Calm     93 % 45.72 mm 0.00 W/m2 CLR
07:24 -11.9 °C -12.6 °C 34591.4 hPa Calm     93 % 45.72 mm 0.00 W/m2 CLR
07:29 -11.9 °C -12.6 °C 34591.4 hPa Calm     93 % 45.72 mm 0.00 W/m2 CLR
07:34 -11.6 °C -12.2 °C 34594.8 hPa Calm     93 % 45.72 mm 0.00 W/m2 CLR
07:39 -11.6 °C -12.2 °C 34594.8 hPa Calm     93 % 38.1 mm 0.00 W/m2 OVC
07:44 -11.6 °C -12.2 °C 34594.8 hPa Calm     93 % 25.4 mm 0.00 W/m2 OVC
07:49 -11.6 °C -12.2 °C 34594.8 hPa Calm     93 % 12.7 mm 0.00 W/m2 OVC
07:54 -11.6 °C -12.2 °C 34594.8 hPa Calm     93 % 12.7 mm 0.00 W/m2 RA
07:59 -11.6 °C -12.2 °C 34598.1 hPa Calm     93 % 7.62 mm 5.00 W/m2 CLR
08:04 -11.6 °C -12.2 °C 34601.5 hPa Calm     93 % 7.62 mm 5.00 W/m2 OVC
08:09 -11.6 °C -12.2 °C 34604.9 hPa Calm     93 % 7.62 mm 7.00 W/m2 OVC
08:14 -11.6 °C -12.2 °C 34604.9 hPa Calm     93 % 7.62 mm 7.00 W/m2 OVC
08:19 -11.6 °C -12.2 °C 34608.3 hPa Calm     93 % 7.62 mm 7.00 W/m2 OVC
08:24 -11.6 °C -12.2 °C 34608.3 hPa Calm     93 % 7.62 mm 7.00 W/m2 OVC
08:29 -11.6 °C -12.2 °C 34604.9 hPa Calm     93 % 7.62 mm 7.00 W/m2 OVC
08:34 -11.6 °C -12.1 °C 34604.9 hPa Calm     94 % 7.62 mm 5.00 W/m2 OVC
08:39 -11.6 °C -12.2 °C 34604.9 hPa Calm     93 % 7.62 mm 5.00 W/m2 OVC
08:44 -11.6 °C -12.2 °C 34608.3 hPa Calm     93 % 12.7 mm 0.00 W/m2 RA
08:49 -11.6 °C -12.2 °C 34611.7 hPa Calm     93 % 12.7 mm 0.00 W/m2
08:54 -11.6 °C -12.2 °C 34611.7 hPa Calm     93 % 12.7 mm 0.00 W/m2 RA
08:59 -11.6 °C -12.1 °C 34615.1 hPa Calm     94 % 20.32 mm 0.00 W/m2 RA
09:04 -11.6 °C -12.1 °C 34618.5 hPa Calm     94 % 25.4 mm 0.00 W/m2 RA
09:09 -11.6 °C -12.2 °C 34618.5 hPa Calm     93 % 38.1 mm 0.00 W/m2 RA
09:14 -11.6 °C -12.2 °C 34621.9 hPa Calm     93 % 38.1 mm 0.00 W/m2 RA
09:19 -11.6 °C -12.2 °C 34625.2 hPa Calm     93 % 45.72 mm 0.00 W/m2 RA
09:24 -11.6 °C -12.2 °C 34625.2 hPa Calm     93 % 50.8 mm 0.00 W/m2 RA
09:29 -11.3 °C -11.9 °C 34625.2 hPa Calm     93 % 58.42 mm 0.00 W/m2 RA
09:34 -11.3 °C -11.9 °C 34632 hPa Calm     93 % 63.5 mm 0.00 W/m2 RA
09:39 -11.3 °C -11.9 °C 34628.6 hPa Calm     93 % 71.12 mm 0.00 W/m2 RA
09:44 -11.3 °C -11.9 °C 34632 hPa Calm     93 % 71.12 mm 5.00 W/m2 RA
09:49 -11.3 °C -11.8 °C 34632 hPa Calm     94 % 76.2 mm 5.00 W/m2 RA
09:54 -11.3 °C -11.8 °C 34635.4 hPa Calm     94 % 83.82 mm 5.00 W/m2 RA
09:59 -11.3 °C -11.8 °C 34632 hPa Calm     94 % 96.52 mm 5.00 W/m2 RA
10:04 -11.3 °C -11.8 °C 34635.4 hPa Calm     94 % 109.22 mm 5.00 W/m2 RA
10:09 -11 °C -11.5 °C 34635.4 hPa West 20.9 km/h 17.1 km/h 94 % 129.54 mm 0.00 W/m2 RA
10:14 -11 °C -11.5 °C 34628.6 hPa NW 20.9 km/h 18.3 km/h 94 % 180.34 mm 0.00 W/m2 RA
10:19 -11 °C -11.5 °C 34635.4 hPa West 9 km/h   94 % 226.06 mm 0.00 W/m2 RA
10:24 -11 °C -11.6 °C 34635.4 hPa Calm     93 % 226.06 mm 0.00 W/m2 RA
10:29 -11 °C -11.6 °C 34638.8 hPa NE 15 km/h 8.2 km/h 93 % 226.06 mm 0.00 W/m2 RA
10:34 -11 °C -11.6 °C 34635.4 hPa Calm     93 % 226.06 mm 5.00 W/m2 RA
10:39 -11 °C -11.6 °C 34642.2 hPa Calm     93 % 218.44 mm 0.00 W/m2 OVC
10:44 -11 °C -11.6 °C 34642.2 hPa Calm     93 % 213.36 mm 0.00 W/m2 OVC
10:49 -11 °C -11.5 °C 34642.2 hPa Calm     94 % 213.36 mm 5.00 W/m2 RA
10:54 -11 °C -11.6 °C 34642.2 hPa Calm     93 % 205.74 mm 5.00 W/m2 RA
10:59 -11 °C -11.5 °C 34645.6 hPa Calm     94 % 200.66 mm 5.00 W/m2 RA
11:04 -11 °C -11.5 °C 34642.2 hPa Calm     94 % 187.96 mm 5.00 W/m2 RA
11:09 -11 °C -11.5 °C 34642.2 hPa Calm     94 % 175.26 mm 5.00 W/m2 RA
11:14 -11 °C -11.5 °C 34642.2 hPa Calm     94 % 129.54 mm 7.00 W/m2 RA
11:19 -11 °C -11.5 °C 34645.6 hPa Calm     94 % 91.44 mm 7.00 W/m2 RA
11:24 -11 °C -11.5 °C 34642.2 hPa Calm     94 % 91.44 mm 9.00 W/m2 RA
11:29 -11 °C -11.5 °C 34638.8 hPa Calm     94 % 91.44 mm 9.00 W/m2 RA
11:34 -11 °C -11.5 °C 34635.4 hPa Calm     94 % 91.44 mm 9.00 W/m2 RA
11:39 -11 °C -11.5 °C 34628.6 hPa Calm     94 % 96.52 mm 9.00 W/m2 RA
11:44 -11 °C -11.5 °C 34632 hPa Calm     94 % 104.14 mm 11.00 W/m2 RA
11:49 -11 °C -11.5 °C 34632 hPa Calm     94 % 96.52 mm 9.00 W/m2 BKN
11:54 -11 °C -11.5 °C 34632 hPa Calm     94 % 91.44 mm 9.00 W/m2 RA
11:59 -11 °C -11.5 °C 34635.4 hPa Calm     94 % 91.44 mm 9.00 W/m2 RA
12:04 -11 °C -11.5 °C 34638.8 hPa Calm     94 % 83.82 mm 9.00 W/m2 RA
12:09 -11 °C -11.5 °C 34632 hPa Calm     94 % 76.2 mm 12.00 W/m2 RA
12:14 -11 °C -11.5 °C 34632 hPa Calm     94 % 71.12 mm 12.00 W/m2 RA
12:19 -11 °C -11.5 °C 34632 hPa Calm     94 % 63.5 mm 11.00 W/m2 RA
12:24 -11 °C -11.5 °C 34628.6 hPa Calm     94 % 58.42 mm 11.00 W/m2 RA
12:29 -11 °C -11.5 °C 34632 hPa Calm     94 % 58.42 mm 9.00 W/m2 BKN
12:34 -11 °C -11.5 °C 34632 hPa Calm     94 % 58.42 mm 9.00 W/m2 RA
12:39 -11 °C -11.5 °C 34628.6 hPa Calm     94 % 50.8 mm 11.00 W/m2 BKN
12:44 -11 °C -11.5 °C 34628.6 hPa Calm     94 % 50.8 mm 11.00 W/m2 RA
12:49 -11 °C -11.5 °C 34628.6 hPa Calm     94 % 50.8 mm 11.00 W/m2 BKN
12:54 -11 °C -11.5 °C 34628.6 hPa Calm     94 % 45.72 mm 12.00 W/m2 BKN
12:59 -11 °C -11.5 °C 34628.6 hPa Calm     94 % 38.1 mm 12.00 W/m2 RA
13:04 -11 °C -11.5 °C 34625.2 hPa Calm     94 % 38.1 mm 12.00 W/m2 BKN
13:09 -11 °C -11.5 °C 34618.5 hPa Calm     94 % 38.1 mm 14.00 W/m2 RA
13:14 -11 °C -11.5 °C 34615.1 hPa Calm     94 % 33.02 mm 16.00 W/m2 BKN
13:19 -11 °C -11.5 °C 34611.7 hPa Calm     94 % 33.02 mm 18.00 W/m2 RA
13:24 -11 °C -11.5 °C 34608.3 hPa Calm     94 % 25.4 mm 21.00 W/m2 BKN
13:29 -11 °C -11.5 °C 34608.3 hPa Calm     94 % 33.02 mm 25.00 W/m2 RA
13:34 -11 °C -11.5 °C 34608.3 hPa Calm     94 % 25.4 mm 30.00 W/m2 BKN
13:39 -11 °C -11.5 °C 34604.9 hPa Calm     94 % 33.02 mm 39.00 W/m2 RA
13:44 -11 °C -11.5 °C 34608.3 hPa Calm     94 % 33.02 mm 51.00 W/m2 RA
13:49 -11 °C -11.5 °C 34608.3 hPa Calm     94 % 33.02 mm 62.00 W/m2 SCT
13:54 -10.7 °C -11.2 °C 34608.3 hPa Calm     94 % 38.1 mm 76.00 W/m2 RA
13:59 -10.7 °C -11.2 °C 34608.3 hPa Calm     94 % 33.02 mm 93.00 W/m2 FEW
14:04 -10.7 °C -11.2 °C 34608.3 hPa Calm     94 % 33.02 mm 113.00 W/m2 CLR
14:09 -10.7 °C -11.2 °C 34608.3 hPa Calm     94 % 25.4 mm 141.00 W/m2 CLR
14:14 -10.7 °C -11.2 °C 34604.9 hPa Calm     94 % 33.02 mm 171.00 W/m2 RA
14:19 -10.7 °C -11.2 °C 34608.3 hPa Calm     94 % 25.4 mm 199.00 W/m2 CLR
14:24 -10.4 °C -10.9 °C 34608.3 hPa Calm     94 % 25.4 mm 234.00 W/m2 CLR
14:29 -10.4 °C -10.9 °C 34608.3 hPa Calm     94 % 20.32 mm 265.00 W/m2 CLR
14:34 -10.4 °C -10.9 °C 34604.9 hPa Calm     94 % 20.32 mm 200.00 W/m2 CLR
14:39 -10.4 °C -10.9 °C 34604.9 hPa Calm     94 % 12.7 mm 236.00 W/m2 CLR
14:44 -10.4 °C -10.9 °C 34601.5 hPa Calm     94 % 12.7 mm 220.00 W/m2 CLR
14:49 -10.4 °C -10.9 °C 34598.1 hPa Calm     94 % 12.7 mm 200.00 W/m2 CLR
14:54 -10.7 °C -11.2 °C 34601.5 hPa Calm     94 % 7.62 mm 213.00 W/m2 CLR
14:59 -10.4 °C -10.9 °C 34601.5 hPa Calm     94 % 7.62 mm 158.00 W/m2 CLR
15:04 -10.4 °C -10.9 °C 34601.5 hPa Calm     94 % 7.62 mm 169.00 W/m2 CLR
15:09 -10.4 °C -10.9 °C 34601.5 hPa Calm     94 % 7.62 mm 135.00 W/m2 CLR
15:14 -10.4 °C -10.9 °C 34601.5 hPa Calm     94 % 0 mm 169.00 W/m2 CLR
15:19 -10.4 °C -10.9 °C 34604.9 hPa Calm     94 % 0 mm 183.00 W/m2 CLR
15:24 -10.4 °C -10.9 °C 34604.9 hPa Calm     94 % 0 mm 204.00 W/m2 CLR
15:29 -10.4 °C -10.9 °C 34601.5 hPa Calm     94 % 0 mm 188.00 W/m2 CLR
15:34 -10.1 °C -10.6 °C 34604.9 hPa Calm     94 % 0 mm 195.00 W/m2 CLR
15:39 -10.1 °C -10.6 °C 34604.9 hPa Calm     94 % 0 mm 160.00 W/m2 CLR
15:44 -10.1 °C -10.6 °C 34601.5 hPa Calm     94 % 0 mm 158.00 W/m2 CLR
15:49 -10.1 °C -10.6 °C 34601.5 hPa Calm     94 % 0 mm 120.00 W/m2 CLR
15:54 -10.1 °C -10.6 °C 34601.5 hPa Calm     94 % 0 mm 97.00 W/m2 CLR
15:59 -10.1 °C -10.6 °C 34598.1 hPa Calm     94 % 0 mm 77.00 W/m2 CLR
16:04 -10.1 °C -10.6 °C 34594.8 hPa Calm     94 % 0 mm 76.00 W/m2 FEW
16:09 -10.1 °C -10.6 °C 34598.1 hPa Calm     94 % 0 mm 70.00 W/m2 FEW
16:14 -10.1 °C -10.6 °C 34594.8 hPa Calm     94 % 0 mm 63.00 W/m2 FEW
16:19 -10.1 °C -10.6 °C 34594.8 hPa Calm     94 % 0 mm 56.00 W/m2 SCT
16:24 -10.4 °C -10.9 °C 34601.5 hPa Calm     94 % 0 mm 56.00 W/m2 SCT
16:29 -10.4 °C -10.9 °C 34598.1 hPa Calm     94 % 0 mm 118.00 W/m2 FEW
16:34 -10.4 °C -10.9 °C 34598.1 hPa Calm     94 % 0 mm 100.00 W/m2 CLR
16:39 -10.4 °C -10.9 °C 34598.1 hPa Calm     94 % 0 mm 67.00 W/m2 CLR
16:44 -10.4 °C -10.9 °C 34598.1 hPa Calm     94 % 0 mm 65.00 W/m2 SCT
16:49 -10.4 °C -10.9 °C 34598.1 hPa Calm     94 % 0 mm 69.00 W/m2 FEW
16:54 -10.4 °C -11 °C 34601.5 hPa Calm     93 % 0 mm 54.00 W/m2 SCT
16:59 -10.4 °C -10.9 °C 34604.9 hPa Calm     94 % 0 mm 47.00 W/m2 SCT
17:04 -10.7 °C -11.2 °C 34601.5 hPa Calm     94 % 0 mm 32.00 W/m2 BKN
17:09 -10.4 °C -10.9 °C 34604.9 hPa Calm     94 % 0 mm 26.00 W/m2 BKN
17:14 -10.4 °C -11 °C 34604.9 hPa Calm     93 % 0 mm 21.00 W/m2 BKN
17:19 -10.4 °C -11 °C 34601.5 hPa Calm     93 % 0 mm 23.00 W/m2 BKN
17:24 -10.4 °C -11 °C 34604.9 hPa Calm     93 % 0 mm 21.00 W/m2 BKN
17:29 -10.4 °C -11 °C 34601.5 hPa Calm     93 % 0 mm 14.00 W/m2 BKN
17:34 -10.4 °C -11 °C 34601.5 hPa Calm     93 % 12.7 mm 9.00 W/m2 RA
17:39 -10.7 °C -11.3 °C 34601.5 hPa Calm     93 % 12.7 mm 7.00 W/m2 BKN
17:44 -10.7 °C -11.3 °C 34598.1 hPa Calm     93 % 12.7 mm 5.00 W/m2 OVC
Lo Temps de Massalio
Compliments of Weather Underground - 1 mb